Time;durP1;ratioP1;P1;durP2;ratioP2;P2;SDS_P1;SDS_P2;PMS_P1;PMS_P2;Temp;Humidity;BMP_temperature;BMP_pressure;BME280_temperature;BME280_humidity;BME280_pressure;Samples;Min_cycle;Max_cycle;Signal;HPM_P1;HPM_P2
2022/08/21 00:00:07;;;;;;;8.80;5.97;;;;;;;;;;5052743;28;20508;-51
2022/08/21 00:02:33;;;;;;;8.95;5.65;;;;;;;;;;5052735;28;20478;-51
2022/08/21 00:04:58;;;;;;;8.73;5.28;;;;;;;;;;5052575;28;20024;-52
2022/08/21 00:07:24;;;;;;;9.35;5.53;;;;;;;;;;5052587;28;20033;-52
2022/08/21 00:09:50;;;;;;;8.68;5.18;;;;;;;;;;5052814;28;20021;-54
2022/08/21 00:12:15;;;;;;;8.55;4.85;;;;;;;;;;5053069;28;20365;-54
2022/08/21 00:14:41;;;;;;;9.77;4.90;;;;;;;;;;5052513;28;20025;-43
2022/08/21 00:17:06;;;;;;;7.95;4.78;;;;;;;;;;5052506;28;20033;-53
2022/08/21 00:19:33;;;;;;;7.63;5.00;;;;;;;;;;5052430;28;20025;-50
2022/08/21 00:21:58;;;;;;;7.85;4.97;;;;;;;;;;5052431;28;20428;-53
2022/08/21 00:24:24;;;;;;;8.73;5.57;;;;;;;;;;5052387;28;20029;-55
2022/08/21 00:26:51;;;;;;;9.20;5.45;;;;;;;;;;5052320;28;20033;-54
2022/08/21 00:29:17;;;;;;;12.07;5.88;;;;;;;;;;5052280;28;20116;-54
2022/08/21 00:31:43;;;;;;;9.90;5.95;;;;;;;;;;5052551;28;20033;-51
2022/08/21 00:34:10;;;;;;;10.38;6.25;;;;;;;;;;5052461;28;20036;-51
2022/08/21 00:36:36;;;;;;;11.45;6.63;;;;;;;;;;5052841;28;20029;-53
2022/08/21 00:39:03;;;;;;;8.15;6.22;;;;;;;;;;5052509;28;20470;-51
2022/08/21 00:41:28;;;;;;;10.13;6.20;;;;;;;;;;5052144;28;20100;-52
2022/08/21 00:43:55;;;;;;;8.80;6.32;;;;;;;;;;5052344;28;20079;-53
2022/08/21 00:46:22;;;;;;;8.68;6.15;;;;;;;;;;5052110;28;20025;-54
2022/08/21 00:48:47;;;;;;;11.70;6.28;;;;;;;;;;5052370;28;20048;-52
2022/08/21 00:51:28;;;;;;;7.90;5.97;;;;;;;;;;5052124;28;20477;-50
2022/08/21 00:53:57;;;;;;;10.68;6.28;;;;;;;;;;5053214;28;20427;-52
2022/08/21 00:56:24;;;;;;;8.70;5.68;;;;;;;;;;5056168;28;20108;-50
2022/08/21 00:58:51;;;;;;;9.73;5.75;;;;;;;;;;5056365;28;20393;-50
2022/08/21 01:01:17;;;;;;;8.38;6.10;;;;;;;;;;5056054;28;20027;-55
2022/08/21 01:03:42;;;;;;;11.05;5.95;;;;;;;;;;5055983;28;20120;-55
2022/08/21 01:06:08;;;;;;;7.95;5.95;;;;;;;;;;5056095;28;20064;-56
2022/08/21 01:08:34;;;;;;;8.52;5.95;;;;;;;;;;5055969;28;20040;-53
2022/08/21 01:11:01;;;;;;;10.07;6.20;;;;;;;;;;5055925;28;20025;-52
2022/08/21 01:13:30;;;;;;;8.48;6.00;;;;;;;;;;5055998;28;20053;-56
2022/08/21 01:15:59;;;;;;;8.68;6.47;;;;;;;;;;5055758;28;20558;-55
2022/08/21 01:18:25;;;;;;;8.23;6.28;;;;;;;;;;5055909;28;20467;-56
2022/08/21 01:21:03;;;;;;;12.10;6.40;;;;;;;;;;5055711;28;20052;-46
2022/08/21 01:23:28;;;;;;;7.57;6.18;;;;;;;;;;5055610;28;20029;-43
2022/08/21 01:25:54;;;;;;;9.38;5.90;;;;;;;;;;5055767;28;20362;-43
2022/08/21 01:28:21;;;;;;;11.30;5.75;;;;;;;;;;5055481;28;20052;-44
2022/08/21 01:30:50;;;;;;;6.72;5.68;;;;;;;;;;5055442;28;20025;-48
2022/08/21 01:33:21;;;;;;;6.90;5.28;;;;;;;;;;5055383;28;20025;-49
2022/08/21 01:35:47;;;;;;;9.32;5.57;;;;;;;;;;5055650;28;20025;-56
2022/08/21 01:38:12;;;;;;;7.75;5.03;;;;;;;;;;5055419;28;20488;-54
2022/08/21 01:40:38;;;;;;;7.07;5.45;;;;;;;;;;5055565;28;20063;-52
2022/08/21 01:43:03;;;;;;;6.88;4.55;;;;;;;;;;5055066;28;20481;-53
2022/08/21 01:45:30;;;;;;;5.32;4.70;;;;;;;;;;5055330;28;20025;-51
2022/08/21 01:47:55;;;;;;;5.53;4.60;;;;;;;;;;5055272;28;20423;-55
2022/08/21 01:50:22;;;;;;;6.38;4.85;;;;;;;;;;5037252;28;20063;-55
2022/08/21 01:52:49;;;;;;;5.03;4.53;;;;;;;;;;5055392;28;20111;-54
2022/08/21 01:55:15;;;;;;;5.22;4.72;;;;;;;;;;5055290;28;20045;-57
2022/08/21 01:57:42;;;;;;;7.78;5.10;;;;;;;;;;5055284;28;20025;-56
2022/08/21 02:00:10;;;;;;;6.15;5.07;;;;;;;;;;5055247;28;20025;-52
2022/08/21 02:02:36;;;;;;;6.78;4.85;;;;;;;;;;5054882;28;20036;-53
2022/08/21 02:05:03;;;;;;;7.30;4.95;;;;;;;;;;5054553;28;20021;-56
2022/08/21 02:07:40;;;;;;;8.20;5.40;;;;;;;;;;5054704;28;20028;-56
2022/08/21 02:10:08;;;;;;;5.55;4.97;;;;;;;;;;5055068;28;20040;-56
2022/08/21 02:12:33;;;;;;;6.28;4.68;;;;;;;;;;5055117;28;20021;-54
2022/08/21 02:15:00;;;;;;;8.77;5.10;;;;;;;;;;5054909;28;20027;-52
2022/08/21 02:17:25;;;;;;;6.43;4.50;;;;;;;;;;5054605;28;20526;-53
2022/08/21 02:19:51;;;;;;;5.50;4.50;;;;;;;;;;5054624;28;20025;-55
2022/08/21 02:22:16;;;;;;;5.20;4.65;;;;;;;;;;5054873;28;20365;-53
2022/08/21 02:24:41;;;;;;;5.00;4.53;;;;;;;;;;5054487;28;20376;-51
2022/08/21 02:27:08;;;;;;;5.63;4.40;;;;;;;;;;5054358;28;20025;-54
2022/08/21 02:29:34;;;;;;;5.03;4.53;;;;;;;;;;5055027;28;20067;-51
2022/08/21 02:32:00;;;;;;;5.30;4.60;;;;;;;;;;5054700;28;20013;-55
2022/08/21 02:34:25;;;;;;;4.97;4.50;;;;;;;;;;5054578;28;20028;-56
2022/08/21 02:36:50;;;;;;;5.55;4.38;;;;;;;;;;5054563;28;20021;-56
2022/08/21 02:39:16;;;;;;;5.55;4.82;;;;;;;;;;5054268;28;20489;-52
2022/08/21 02:41:42;;;;;;;4.57;4.15;;;;;;;;;;5054223;28;20457;-52
2022/08/21 02:44:07;;;;;;;4.53;4.13;;;;;;;;;;5054067;28;20049;-55
2022/08/21 02:46:33;;;;;;;5.75;3.60;;;;;;;;;;5054141;28;20032;-55
2022/08/21 02:48:58;;;;;;;3.83;3.22;;;;;;;;;;5054059;28;20029;-53
2022/08/21 02:51:24;;;;;;;3.97;3.63;;;;;;;;;;5054361;28;20037;-51
2022/08/21 02:53:50;;;;;;;3.53;3.10;;;;;;;;;;5054238;28;20025;-54
2022/08/21 02:56:19;;;;;;;3.88;3.40;;;;;;;;;;5054202;28;20025;-53
2022/08/21 02:58:50;;;;;;;6.90;3.30;;;;;;;;;;5054155;28;20426;-52
2022/08/21 03:01:16;;;;;;;4.85;3.30;;;;;;;;;;5054175;28;20416;-51
2022/08/21 03:03:44;;;;;;;3.58;3.28;;;;;;;;;;5054078;28;20354;-52
2022/08/21 03:06:13;;;;;;;3.33;3.03;;;;;;;;;;5053899;28;20033;-52
2022/08/21 03:08:38;;;;;;;3.08;2.78;;;;;;;;;;5053681;28;20069;-53
2022/08/21 03:11:04;;;;;;;5.03;3.38;;;;;;;;;;5035785;28;20064;-57
2022/08/21 03:13:30;;;;;;;4.38;3.65;;;;;;;;;;5053818;28;20029;-52
2022/08/21 03:15:56;;;;;;;3.97;3.55;;;;;;;;;;5053326;28;20021;-54
2022/08/21 03:18:22;;;;;;;4.53;3.45;;;;;;;;;;5053010;28;20046;-55
2022/08/21 03:20:48;;;;;;;4.22;3.80;;;;;;;;;;5053444;28;20025;-56
2022/08/21 03:23:15;;;;;;;9.32;3.80;;;;;;;;;;5053619;28;20475;-55
2022/08/21 03:25:41;;;;;;;4.22;3.72;;;;;;;;;;5053259;28;20110;-55
2022/08/21 03:28:14;;;;;;;4.40;4.00;;;;;;;;;;5053554;28;20029;-56
2022/08/21 03:30:41;;;;;;;5.47;3.75;;;;;;;;;;5053488;28;20112;-55
2022/08/21 03:33:06;;;;;;;4.18;3.78;;;;;;;;;;5053174;28;20021;-55
2022/08/21 03:35:32;;;;;;;3.92;3.53;;;;;;;;;;5053426;28;20029;-55
2022/08/21 03:37:57;;;;;;;4.50;4.10;;;;;;;;;;5053113;28;20025;-52
2022/08/21 03:40:25;;;;;;;4.22;3.70;;;;;;;;;;5053692;28;20391;-52
2022/08/21 03:42:51;;;;;;;5.20;3.65;;;;;;;;;;5053062;28;20090;-53
2022/08/21 03:45:18;;;;;;;4.57;4.18;;;;;;;;;;5053027;28;20423;-56
2022/08/21 03:47:57;;;;;;;6.03;4.13;;;;;;;;;;5053227;28;20029;-56
2022/08/21 03:50:28;;;;;;;4.82;3.75;;;;;;;;;;5052929;28;20029;-58
2022/08/21 03:52:53;;;;;;;4.00;3.60;;;;;;;;;;5052876;28;20021;-52
2022/08/21 03:55:19;;;;;;;6.78;3.92;;;;;;;;;;5052882;28;20036;-53
2022/08/21 03:57:44;;;;;;;6.05;4.03;;;;;;;;;;5052697;28;20044;-54
2022/08/21 04:00:12;;;;;;;4.25;3.85;;;;;;;;;;5053039;28;20111;-55
2022/08/21 04:02:38;;;;;;;5.43;4.15;;;;;;;;;;5052611;28;20029;-54
2022/08/21 04:05:05;;;;;;;6.18;4.38;;;;;;;;;;5052714;28;20028;-53
2022/08/21 04:07:30;;;;;;;6.93;4.38;;;;;;;;;;5034849;28;20039;-53
2022/08/21 04:09:56;;;;;;;5.68;4.85;;;;;;;;;;5052575;28;20025;-56
2022/08/21 04:12:21;;;;;;;7.00;4.60;;;;;;;;;;5052854;28;20035;-56
2022/08/21 04:14:47;;;;;;;5.63;4.55;;;;;;;;;;5052828;28;20481;-55
2022/08/21 04:17:12;;;;;;;5.38;4.88;;;;;;;;;;5052751;28;20048;-56
2022/08/21 04:19:38;;;;;;;5.53;4.63;;;;;;;;;;5052733;28;20029;-52
2022/08/21 04:22:03;;;;;;;9.35;5.18;;;;;;;;;;5052632;28;20033;-51
2022/08/21 04:24:29;;;;;;;5.75;4.78;;;;;;;;;;5052404;28;20158;-51
2022/08/21 04:26:55;;;;;;;6.07;4.68;;;;;;;;;;5052203;28;20032;-53
2022/08/21 04:29:20;;;;;;;5.93;4.75;;;;;;;;;;5052579;28;20021;-52
2022/08/21 04:31:45;;;;;;;5.97;5.03;;;;;;;;;;5052628;28;20033;-54
2022/08/21 04:34:11;;;;;;;6.80;5.18;;;;;;;;;;5034445;28;20053;-56
2022/08/21 04:36:37;;;;;;;5.68;4.97;;;;;;;;;;5052257;28;20080;-51
2022/08/21 04:39:02;;;;;;;7.93;6.15;;;;;;;;;;5052184;28;20025;-53
2022/08/21 04:41:28;;;;;;;6.88;5.60;;;;;;;;;;5052476;28;20036;-55
2022/08/21 04:43:55;;;;;;;8.27;5.50;;;;;;;;;;5051897;28;20080;-54
2022/08/21 04:46:22;;;;;;;10.00;5.47;;;;;;;;;;5052055;28;20041;-54
2022/08/21 04:48:48;;;;;;;14.50;5.80;;;;;;;;;;5052406;28;20059;-53
2022/08/21 04:51:22;;;;;;;9.55;5.70;;;;;;;;;;5052144;28;20025;-56
2022/08/21 04:53:55;;;;;;;9.20;5.50;;;;;;;;;;5052399;28;20028;-56
2022/08/21 04:56:35;;;;;;;7.60;5.70;;;;;;;;;;5052390;28;20186;-56
2022/08/21 04:59:04;;;;;;;6.68;5.60;;;;;;;;;;5052149;28;20131;-56
2022/08/21 05:01:33;;;;;;;7.60;5.90;;;;;;;;;;5052328;28;20029;-57
2022/08/21 05:04:02;;;;;;;7.88;5.25;;;;;;;;;;5052374;28;20033;-54
2022/08/21 05:06:31;;;;;;;7.80;6.00;;;;;;;;;;5052153;28;20423;-57
2022/08/21 05:08:58;;;;;;;8.80;5.53;;;;;;;;;;5051842;28;20117;-57
2022/08/21 05:11:23;;;;;;;7.85;5.65;;;;;;;;;;5052200;28;20075;-54
2022/08/21 05:13:49;;;;;;;11.55;5.47;;;;;;;;;;5052196;28;20017;-48
2022/08/21 05:16:15;;;;;;;8.73;6.05;;;;;;;;;;5051948;28;20036;-57
2022/08/21 05:18:41;;;;;;;6.97;5.55;;;;;;;;;;5051782;28;20408;-55
2022/08/21 05:21:07;;;;;;;8.20;5.63;;;;;;;;;;5034222;28;20079;-52
2022/08/21 05:23:33;;;;;;;8.57;5.30;;;;;;;;;;5051811;28;20048;-51
2022/08/21 05:25:59;;;;;;;6.95;5.18;;;;;;;;;;5052002;28;20025;-50
2022/08/21 05:28:25;;;;;;;6.03;5.35;;;;;;;;;;5052037;28;20040;-53
2022/08/21 05:30:51;;;;;;;6.72;4.93;;;;;;;;;;5051791;28;20048;-55
2022/08/21 05:33:16;;;;;;;9.23;5.28;;;;;;;;;;5051710;28;20025;-53
2022/08/21 05:35:42;;;;;;;15.88;5.07;;;;;;;;;;5052065;28;20041;-56
2022/08/21 05:38:08;;;;;;;6.00;5.15;;;;;;;;;;5051627;28;20114;-55
2022/08/21 05:40:33;;;;;;;6.93;4.80;;;;;;;;;;5053509;28;20025;-55
2022/08/21 05:42:59;;;;;;;11.90;5.03;;;;;;;;;;5055163;28;20055;-58
2022/08/21 05:45:29;;;;;;;5.70;5.10;;;;;;;;;;5055139;28;20080;-52
2022/08/21 05:47:54;;;;;;;6.43;5.28;;;;;;;;;;5055191;28;20566;-56
2022/08/21 05:50:20;;;;;;;6.72;5.13;;;;;;;;;;5037348;28;20025;-53
2022/08/21 05:52:46;;;;;;;7.60;5.30;;;;;;;;;;5037323;28;20079;-57
2022/08/21 05:55:11;;;;;;;7.43;4.90;;;;;;;;;;5055095;28;20083;-55
2022/08/21 05:57:40;;;;;;;6.25;5.03;;;;;;;;;;5054776;28;20033;-53
2022/08/21 06:00:12;;;;;;;6.63;4.88;;;;;;;;;;5055301;28;20472;-55
2022/08/21 06:02:38;;;;;;;6.28;5.07;;;;;;;;;;5055211;28;20435;-53
2022/08/21 06:05:04;;;;;;;8.70;4.97;;;;;;;;;;5054858;28;20020;-54
2022/08/21 06:07:29;;;;;;;9.82;5.25;;;;;;;;;;5054729;28;20116;-53
2022/08/21 06:09:55;;;;;;;10.48;5.45;;;;;;;;;;5054833;28;20120;-51
2022/08/21 06:12:21;;;;;;;6.28;5.20;;;;;;;;;;5055018;28;20032;-58
2022/08/21 06:14:46;;;;;;;6.38;5.43;;;;;;;;;;5054958;28;20074;-52
2022/08/21 06:17:13;;;;;;;6.45;5.20;;;;;;;;;;5054612;28;20431;-55
2022/08/21 06:19:39;;;;;;;7.65;5.85;;;;;;;;;;5054633;28;20397;-54
2022/08/21 06:22:05;;;;;;;7.05;5.00;;;;;;;;;;5054539;28;20025;-54
2022/08/21 06:24:30;;;;;;;7.95;5.85;;;;;;;;;;5054892;28;20028;-55
2022/08/21 06:26:56;;;;;;;7.35;5.95;;;;;;;;;;5054678;28;20051;-56
2022/08/21 06:29:22;;;;;;;12.68;6.53;;;;;;;;;;5054777;28;20021;-51
2022/08/21 06:31:49;;;;;;;11.10;7.32;;;;;;;;;;5054436;28;20120;-55
2022/08/21 06:34:16;;;;;;;13.90;7.00;;;;;;;;;;5054594;28;20033;-55
2022/08/21 06:36:41;;;;;;;9.30;6.30;;;;;;;;;;5054199;28;20469;-55
2022/08/21 06:39:07;;;;;;;9.38;7.35;;;;;;;;;;5054381;28;20029;-55
2022/08/21 06:41:33;;;;;;;9.57;6.95;;;;;;;;;;5054181;28;20075;-56
2022/08/21 06:43:58;;;;;;;8.43;7.07;;;;;;;;;;5054019;28;20132;-55
2022/08/21 06:46:26;;;;;;;10.77;8.63;;;;;;;;;;5054298;28;20136;-54
2022/08/21 06:48:51;;;;;;;13.23;9.07;;;;;;;;;;5036241;28;20029;-55
2022/08/21 06:51:17;;;;;;;14.20;9.63;;;;;;;;;;5053127;28;20358;-56
2022/08/21 06:53:43;;;;;;;14.02;10.00;;;;;;;;;;5054175;28;20097;-52
2022/08/21 06:56:08;;;;;;;16.10;9.55;;;;;;;;;;5054198;28;20095;-56
2022/08/21 06:58:34;;;;;;;13.68;9.43;;;;;;;;;;5053974;28;20036;-57
2022/08/21 07:01:00;;;;;;;13.23;8.95;;;;;;;;;;5054078;28;20103;-55
2022/08/21 07:03:35;;;;;;;14.85;9.75;;;;;;;;;;5054077;28;20025;-56
2022/08/21 07:06:01;;;;;;;19.92;9.88;;;;;;;;;;5053495;28;20487;-54
2022/08/21 07:08:27;;;;;;;14.00;10.05;;;;;;;;;;5053546;28;20032;-51
2022/08/21 07:10:55;;;;;;;15.05;11.07;;;;;;;;;;5035779;28;20075;-52
2022/08/21 07:13:21;;;;;;;14.02;10.68;;;;;;;;;;5053858;28;20017;-56
2022/08/21 07:15:47;;;;;;;15.40;10.80;;;;;;;;;;5053758;28;20116;-57
2022/08/21 07:18:13;;;;;;;16.30;9.82;;;;;;;;;;5053552;28;20437;-55
2022/08/21 07:20:39;;;;;;;11.85;9.85;;;;;;;;;;5053247;28;20048;-55
2022/08/21 07:23:08;;;;;;;12.93;10.15;;;;;;;;;;5052237;28;20492;-46
2022/08/21 07:25:35;;;;;;;16.08;11.52;;;;;;;;;;5052942;28;20357;-57
2022/08/21 07:28:01;;;;;;;12.98;11.00;;;;;;;;;;5053517;28;20044;-54
2022/08/21 07:30:27;;;;;;;12.15;10.38;;;;;;;;;;5053265;28;20485;-54
2022/08/21 07:32:53;;;;;;;13.80;9.88;;;;;;;;;;5053196;28;20033;-48
2022/08/21 07:35:20;;;;;;;12.88;9.60;;;;;;;;;;5052829;28;20053;-45
2022/08/21 07:37:46;;;;;;;10.15;8.90;;;;;;;;;;5053188;28;20029;-44
2022/08/21 07:40:13;;;;;;;11.13;9.32;;;;;;;;;;5034988;28;20500;-55
2022/08/21 07:42:43;;;;;;;12.43;9.68;;;;;;;;;;5052716;28;20021;-57
2022/08/21 07:45:10;;;;;;;12.35;9.38;;;;;;;;;;5052705;28;20077;-48
2022/08/21 07:47:36;;;;;;;15.63;9.57;;;;;;;;;;5052413;28;20029;-56
2022/08/21 07:50:01;;;;;;;10.95;9.55;;;;;;;;;;5052536;28;20119;-50
2022/08/21 07:52:26;;;;;;;10.73;9.02;;;;;;;;;;5052279;28;20540;-57
2022/08/21 07:54:52;;;;;;;12.20;8.25;;;;;;;;;;5052738;28;20412;-53
2022/08/21 07:57:18;;;;;;;8.63;7.72;;;;;;;;;;5052729;28;20416;-53
2022/08/21 07:59:43;;;;;;;10.02;8.57;;;;;;;;;;5052372;28;20354;-58
2022/08/21 08:02:09;;;;;;;9.35;8.00;;;;;;;;;;5051760;28;20031;-53
2022/08/21 08:04:34;;;;;;;8.18;7.32;;;;;;;;;;5050620;28;20025;-57
2022/08/21 08:07:00;;;;;;;10.95;8.60;;;;;;;;;;5051709;28;20033;-47
2022/08/21 08:09:25;;;;;;;10.60;8.05;;;;;;;;;;5052454;28;20025;-55
2022/08/21 08:11:51;;;;;;;9.15;8.23;;;;;;;;;;5051502;28;20028;-52
2022/08/21 08:14:16;;;;;;;10.25;8.07;;;;;;;;;;5051040;28;20024;-51
2022/08/21 08:16:44;;;;;;;10.07;8.98;;;;;;;;;;5052451;28;20029;-52
2022/08/21 08:19:09;;;;;;;8.65;7.78;;;;;;;;;;5052464;28;20366;-52
2022/08/21 08:21:37;;;;;;;9.40;8.48;;;;;;;;;;5052342;28;20051;-51
2022/08/21 08:24:03;;;;;;;8.70;7.68;;;;;;;;;;5052426;28;20025;-53
2022/08/21 08:26:28;;;;;;;8.73;7.90;;;;;;;;;;5052527;28;20117;-56
2022/08/21 08:28:54;;;;;;;8.60;7.80;;;;;;;;;;5052629;28;20037;-55
2022/08/21 08:31:19;;;;;;;8.85;7.30;;;;;;;;;;5052496;28;20147;-51
2022/08/21 08:33:45;;;;;;;7.95;7.15;;;;;;;;;;5034314;28;20482;-54
2022/08/21 08:36:14;;;;;;;6.75;6.15;;;;;;;;;;5052275;28;20032;-55
2022/08/21 08:38:40;;;;;;;7.20;6.50;;;;;;;;;;5052268;28;20592;-55
2022/08/21 08:41:12;;;;;;;8.32;7.18;;;;;;;;;;5052128;28;20515;-47
2022/08/21 08:43:41;;;;;;;10.15;7.47;;;;;;;;;;5034192;28;20087;-52
2022/08/21 08:46:13;;;;;;;8.55;7.00;;;;;;;;;;5051982;28;20025;-49
2022/08/21 08:48:47;;;;;;;8.35;7.10;;;;;;;;;;5052393;28;20025;-50
2022/08/21 08:51:21;;;;;;;7.15;6.45;;;;;;;;;;5052049;28;20035;-54
2022/08/21 08:53:52;;;;;;;5.90;5.40;;;;;;;;;;5052448;28;20106;-53
2022/08/21 08:56:23;;;;;;;6.32;5.60;;;;;;;;;;5052263;28;20044;-48
2022/08/21 08:58:52;;;;;;;6.15;5.55;;;;;;;;;;5052071;28;20028;-46
2022/08/21 09:01:19;;;;;;;7.20;5.80;;;;;;;;;;5052257;28;20025;-47
2022/08/21 09:03:49;;;;;;;5.78;5.25;;;;;;;;;;5052254;28;20031;-44
2022/08/21 09:06:33;;;;;;;6.00;5.50;;;;;;;;;;5051896;28;20033;-48
2022/08/21 09:09:11;;;;;;;7.13;5.45;;;;;;;;;;5052255;28;20029;-48
2022/08/21 09:12:03;;;;;;;8.45;5.15;;;;;;;;;;5052204;28;20029;-46
2022/08/21 09:14:46;;;;;;;5.78;4.97;;;;;;;;;;5035402;28;20025;-54
2022/08/21 09:17:33;;;;;;;9.88;6.05;;;;;;;;;;5056210;28;20033;-52
2022/08/21 09:20:13;;;;;;;6.00;5.40;;;;;;;;;;5055917;28;20039;-49
2022/08/21 09:23:12;;;;;;;12.93;5.78;;;;;;;;;;5055759;28;20025;-53
2022/08/21 09:25:45;;;;;;;6.25;5.75;;;;;;;;;;5055684;28;20020;-49
2022/08/21 09:28:13;;;;;;;6.93;5.85;;;;;;;;;;5055748;28;20020;-58
2022/08/21 09:30:40;;;;;;;10.40;7.18;;;;;;;;;;5052897;28;20029;-59
2022/08/21 09:33:07;;;;;;;7.82;6.80;;;;;;;;;;5051114;28;20040;-57
2022/08/21 09:35:34;;;;;;;9.27;7.18;;;;;;;;;;5055008;28;20052;-56
2022/08/21 09:38:05;;;;;;;8.45;7.75;;;;;;;;;;5055062;28;20056;-57
2022/08/21 09:40:40;;;;;;;8.90;8.00;;;;;;;;;;5055635;28;20025;-53
2022/08/21 09:43:21;;;;;;;9.93;8.93;;;;;;;;;;5054991;28;20485;-49
2022/08/21 09:45:48;;;;;;;9.90;7.43;;;;;;;;;;5055494;28;20116;-47
2022/08/21 09:48:18;;;;;;;11.73;8.45;;;;;;;;;;5055341;28;20047;-43
2022/08/21 09:50:44;;;;;;;26.00;23.65;;;;;;;;;;5055082;28;20025;-52
2022/08/21 09:53:23;;;;;;;9.13;8.32;;;;;;;;;;5055129;28;20535;-40
2022/08/21 09:58:41;;;;;;;7.97;7.18;;;;;;;;;;5054556;28;20542;-49
2022/08/21 10:01:17;;;;;;;8.30;7.50;;;;;;;;;;5055291;28;20431;-52
2022/08/21 10:03:43;;;;;;;8.35;7.50;;;;;;;;;;5054918;28;20025;-52
2022/08/21 10:06:11;;;;;;;8.00;7.20;;;;;;;;;;5054893;28;20137;-45
2022/08/21 10:08:39;;;;;;;13.98;7.85;;;;;;;;;;5036984;28;20029;-45
2022/08/21 10:11:10;;;;;;;9.15;8.23;;;;;;;;;;5055158;28;20055;-44
2022/08/21 10:13:51;;;;;;;11.68;9.20;;;;;;;;;;5054803;28;20035;-44
2022/08/21 10:16:35;;;;;;;9.85;8.85;;;;;;;;;;5055132;28;20079;-45
2022/08/21 10:19:12;;;;;;;9.60;8.70;;;;;;;;;;5054783;28;20529;-48
2022/08/21 10:22:20;;;;;;;11.13;8.73;;;;;;;;;;5054642;28;20033;-45
2022/08/21 10:25:07;;;;;;;12.82;9.43;;;;;;;;;;5016716;28;20052;-50
2022/08/21 10:27:51;;;;;;;12.35;9.75;;;;;;;;;;5054431;28;20025;-50
2022/08/21 10:30:35;;;;;;;16.63;9.85;;;;;;;;;;5054559;28;20119;-49
2022/08/21 10:33:23;;;;;;;12.23;11.02;;;;;;;;;;5054432;28;20024;-50
2022/08/21 10:36:12;;;;;;;14.27;11.40;;;;;;;;;;5054436;28;20128;-52
2022/08/21 10:38:59;;;;;;;13.45;11.90;;;;;;;;;;5054368;28;20052;-49
2022/08/21 10:41:59;;;;;;;14.05;11.70;;;;;;;;;;5054601;28;20048;-49
2022/08/21 10:44:40;;;;;;;13.05;11.93;;;;;;;;;;5011168;28;20493;-45
2022/08/21 10:47:37;;;;;;;14.77;13.32;;;;;;;;;;5054184;28;20044;-41
2022/08/21 10:50:30;;;;;;;14.95;12.02;;;;;;;;;;5043226;28;20033;-49
2022/08/21 10:53:22;;;;;;;14.20;12.57;;;;;;;;;;5054094;28;20469;-51
2022/08/21 10:55:54;;;;;;;14.32;12.90;;;;;;;;;;5054100;28;20025;-47
2022/08/21 10:58:34;;;;;;;16.42;12.38;;;;;;;;;;5054557;28;20032;-48
2022/08/21 11:01:24;;;;;;;14.98;12.52;;;;;;;;;;5053902;28;20504;-46
2022/08/21 11:04:11;;;;;;;14.38;12.68;;;;;;;;;;5053919;28;20033;-52
2022/08/21 11:06:42;;;;;;;12.05;10.95;;;;;;;;;;5053691;28;20460;-48
2022/08/21 11:09:17;;;;;;;14.18;12.32;;;;;;;;;;5054069;28;20035;-52
2022/08/21 11:12:06;;;;;;;13.32;12.02;;;;;;;;;;5053776;28;20090;-46
2022/08/21 11:14:59;;;;;;;13.95;12.55;;;;;;;;;;5053551;28;20033;-47
2022/08/21 11:17:36;;;;;;;14.27;12.85;;;;;;;;;;5036035;28;20143;-45
2022/08/21 11:20:15;;;;;;;13.43;11.15;;;;;;;;;;5053626;28;20051;-48
2022/08/21 11:23:08;;;;;;;13.05;11.80;;;;;;;;;;5053826;28;20384;-50
2022/08/21 11:25:49;;;;;;;13.15;11.63;;;;;;;;;;5053483;28;20104;-48
2022/08/21 11:28:26;;;;;;;11.63;10.63;;;;;;;;;;5053696;28;20071;-48
2022/08/21 11:31:07;;;;;;;14.40;12.02;;;;;;;;;;5053691;28;20021;-47
2022/08/21 11:33:58;;;;;;;13.63;12.15;;;;;;;;;;5053296;28;20115;-49
2022/08/21 11:36:35;;;;;;;12.23;11.02;;;;;;;;;;5053294;28;20107;-48
2022/08/21 11:39:24;;;;;;;12.18;10.95;;;;;;;;;;5052974;28;20029;-53
2022/08/21 11:42:40;;;;;;;15.43;11.10;;;;;;;;;;5053402;28;20120;-47
2022/08/21 11:45:32;;;;;;;14.40;11.55;;;;;;;;;;4972027;28;20047;-50
2022/08/21 11:48:19;;;;;;;15.98;11.63;;;;;;;;;;5050764;28;20044;-50
2022/08/21 11:50:45;;;;;;;13.98;12.43;;;;;;;;;;5052977;28;20408;-48
2022/08/21 11:53:19;;;;;;;14.73;13.30;;;;;;;;;;5052970;28;20028;-49
2022/08/21 11:55:53;;;;;;;14.75;13.25;;;;;;;;;;5052921;28;20036;-44
2022/08/21 11:58:28;;;;;;;15.80;14.13;;;;;;;;;;5052837;28;20031;-47
2022/08/21 12:01:03;;;;;;;15.65;14.15;;;;;;;;;;5052806;28;20037;-47
2022/08/21 12:03:36;;;;;;;15.00;13.43;;;;;;;;;;5052810;28;20541;-49
2022/08/21 12:06:07;;;;;;;15.50;14.02;;;;;;;;;;5052703;28;20021;-46
2022/08/21 12:08:40;;;;;;;16.13;14.35;;;;;;;;;;5052685;28;20037;-47
2022/08/21 12:11:18;;;;;;;15.27;13.75;;;;;;;;;;5052596;28;20104;-49
2022/08/21 12:13:55;;;;;;;16.70;14.98;;;;;;;;;;5052822;28;20112;-46
2022/08/21 12:16:37;;;;;;;14.85;13.40;;;;;;;;;;5052561;28;20509;-52
2022/08/21 12:19:07;;;;;;;16.10;14.40;;;;;;;;;;5052549;28;20029;-47
2022/08/21 12:21:33;;;;;;;;;;;;;;;;;;5052938;28;20033;-50
2022/08/21 12:24:25;;;;;;;16.35;14.70;;;;;;;;;;5052346;28;19960;-51
2022/08/21 12:27:00;;;;;;;17.33;15.57;;;;;;;;;;5021414;28;20037;-52
2022/08/21 12:29:31;;;;;;;16.77;15.13;;;;;;;;;;5052576;28;20223;-47
2022/08/21 12:32:09;;;;;;;17.10;15.40;;;;;;;;;;5052256;28;20028;-48
2022/08/21 12:34:36;;;;;;;16.17;14.65;;;;;;;;;;5052315;28;20056;-47
2022/08/21 12:37:24;;;;;;;17.63;15.18;;;;;;;;;;5052263;28;20025;-45
2022/08/21 12:39:52;;;;;;;17.67;15.88;;;;;;;;;;5052218;28;20481;-50
2022/08/21 12:42:41;;;;;;;17.63;15.73;;;;;;;;;;5052220;28;20473;-45
2022/08/21 12:45:27;;;;;;;17.90;16.03;;;;;;;;;;5012669;28;20482;-49
2022/08/21 12:48:12;;;;;;;19.23;17.23;;;;;;;;;;5012564;28;20040;-47
2022/08/21 12:50:48;;;;;;;22.33;16.98;;;;;;;;;;5014521;28;20037;-41
2022/08/21 12:53:33;;;;;;;19.48;16.33;;;;;;;;;;5016658;28;20033;-43
2022/08/21 12:56:03;;;;;;;16.95;15.15;;;;;;;;;;5016913;28;20040;-48
2022/08/21 12:58:30;;;;;;;17.27;15.57;;;;;;;;;;5016617;28;20057;-50
2022/08/21 13:01:04;;;;;;;17.38;15.57;;;;;;;;;;5016427;28;20080;-44
2022/08/21 13:03:31;;;;;;;17.15;14.85;;;;;;;;;;5016531;28;20018;-45
2022/08/21 13:05:58;;;;;;;18.40;16.58;;;;;;;;;;5016614;28;20060;-47
2022/08/21 13:08:26;;;;;;;15.60;14.00;;;;;;;;;;5016933;28;20072;-45
2022/08/21 13:11:00;;;;;;;14.98;13.57;;;;;;;;;;5016481;28;20029;-45
2022/08/21 13:13:28;;;;;;;14.90;13.20;;;;;;;;;;5016346;28;20088;-46
2022/08/21 13:16:04;;;;;;;12.45;11.18;;;;;;;;;;5016552;28;20109;-44
2022/08/21 13:18:32;;;;;;;14.07;12.57;;;;;;;;;;5016228;28;20478;-47
2022/08/21 13:21:09;;;;;;;17.92;13.88;;;;;;;;;;5016394;28;20026;-46
2022/08/21 13:23:35;;;;;;;16.42;12.35;;;;;;;;;;5016165;28;20025;-46
2022/08/21 13:26:02;;;;;;;15.05;12.98;;;;;;;;;;5015987;28;20029;-48
2022/08/21 13:28:37;;;;;;;11.75;10.57;;;;;;;;;;5014756;28;20524;-49
2022/08/21 13:31:09;;;;;;;13.45;11.63;;;;;;;;;;5015994;28;20477;-46
2022/08/21 13:33:34;;;;;;;15.85;12.77;;;;;;;;;;5015931;28;20030;-44
2022/08/21 13:36:00;;;;;;;13.30;11.90;;;;;;;;;;5015967;28;20037;-52
2022/08/21 13:38:30;;;;;;;14.68;11.23;;;;;;;;;;5015847;28;20041;-52
2022/08/21 13:41:02;;;;;;;13.52;12.13;;;;;;;;;;5015794;28;20060;-46
2022/08/21 13:43:33;;;;;;;14.05;11.85;;;;;;;;;;5029441;28;20072;-46
2022/08/21 13:46:00;;;;;;;13.63;12.23;;;;;;;;;;5055600;28;20119;-46
2022/08/21 13:48:29;;;;;;;16.27;12.73;;;;;;;;;;5055320;28;20032;-46
2022/08/21 13:50:56;;;;;;;15.77;12.45;;;;;;;;;;5055218;28;20472;-46
2022/08/21 13:53:34;;;;;;;15.50;11.88;;;;;;;;;;5055294;28;20120;-46
2022/08/21 13:56:00;;;;;;;16.15;12.18;;;;;;;;;;5055151;28;20029;-48
2022/08/21 13:58:41;;;;;;;14.40;11.95;;;;;;;;;;5055082;28;20025;-49
2022/08/21 14:01:22;;;;;;;13.23;11.50;;;;;;;;;;5054542;28;20042;-46
2022/08/21 14:03:50;;;;;;;14.73;10.77;;;;;;;;;;5055070;28;20024;-47
2022/08/21 14:06:25;;;;;;;16.50;12.90;;;;;;;;;;5055248;28;20043;-47
2022/08/21 14:08:56;;;;;;;16.33;12.35;;;;;;;;;;5055043;28;20111;-47
2022/08/21 14:11:22;;;;;;;15.35;12.90;;;;;;;;;;5055177;28;20044;-49
2022/08/21 14:13:56;;;;;;;15.18;12.95;;;;;;;;;;5054806;28;20028;-47
2022/08/21 14:16:43;;;;;;;15.20;13.20;;;;;;;;;;5054860;28;20108;-47
2022/08/21 14:19:21;;;;;;;21.63;13.75;;;;;;;;;;5054672;28;20416;-44
2022/08/21 14:21:46;;;;;;;16.23;13.45;;;;;;;;;;5054913;28;20435;-48
2022/08/21 14:24:13;;;;;;;17.08;12.57;;;;;;;;;;5054666;28;20047;-47
2022/08/21 14:26:50;;;;;;;16.38;12.68;;;;;;;;;;5054447;28;20033;-47
2022/08/21 14:29:17;;;;;;;15.50;13.30;;;;;;;;;;5054593;28;20025;-50
2022/08/21 14:31:49;;;;;;;18.10;12.48;;;;;;;;;;5054546;28;20420;-47
2022/08/21 14:34:16;;;;;;;15.60;12.75;;;;;;;;;;5054677;28;20638;-46
2022/08/21 14:36:42;;;;;;;16.00;13.38;;;;;;;;;;5054325;28;20025;-46
2022/08/21 14:39:08;;;;;;;17.83;12.38;;;;;;;;;;5054322;28;20021;-49
2022/08/21 14:41:34;;;;;;;15.15;12.32;;;;;;;;;;5054310;28;20099;-46
2022/08/21 14:43:59;;;;;;;15.20;12.10;;;;;;;;;;5054098;28;20128;-48
2022/08/21 14:46:28;;;;;;;16.48;13.02;;;;;;;;;;5054157;28;20543;-46
2022/08/21 14:48:54;;;;;;;16.65;13.60;;;;;;;;;;5054471;28;20044;-47
2022/08/21 14:51:19;;;;;;;14.27;12.43;;;;;;;;;;5054467;28;20013;-45
2022/08/21 14:53:45;;;;;;;17.10;12.45;;;;;;;;;;5054091;28;20029;-48